Time;durP1;ratioP1;P1;durP2;ratioP2;P2;SDS_P1;SDS_P2;PMS_P1;PMS_P2;Temp;Humidity;BMP_temperature;BMP_pressure;BME280_temperature;BME280_humidity;BME280_pressure;Samples;Min_cycle;Max_cycle;Signal;HPM_P1;HPM_P2
2022/01/15 00:01:15;;;;;;;0.10;0.10;;;;;;;;;;4983197;28;20662;-71
2022/01/15 00:03:43;;;;;;;0.10;0.10;;;;;;;;;;4984212;28;20656;-71
2022/01/15 00:06:10;;;;;;;0.10;0.10;;;;;;;;;;4984343;28;20635;-71
2022/01/15 00:08:37;;;;;;;0.10;0.10;;;;;;;;;;4979867;28;20617;-71
2022/01/15 00:11:06;;;;;;;0.07;0.07;;;;;;;;;;4979934;28;20716;-71
2022/01/15 00:13:33;;;;;;;0.10;0.10;;;;;;;;;;4983452;28;20672;-71
2022/01/15 00:16:07;;;;;;;0.13;0.13;;;;;;;;;;4983665;28;20616;-71
2022/01/15 00:18:43;;;;;;;0.10;0.10;;;;;;;;;;4983625;28;20740;-72
2022/01/15 00:21:11;;;;;;;0.10;0.10;;;;;;;;;;4986773;28;20643;-70
2022/01/15 00:23:38;;;;;;;0.10;0.10;;;;;;;;;;4983235;28;20691;-70
2022/01/15 00:26:07;;;;;;;0.10;0.10;;;;;;;;;;4993215;28;20646;-70
2022/01/15 00:28:34;;;;;;;0.10;0.10;;;;;;;;;;4978966;28;20657;-71
2022/01/15 00:31:01;;;;;;;0.10;0.10;;;;;;;;;;4988479;28;20710;-71
2022/01/15 00:33:30;;;;;;;0.10;0.10;;;;;;;;;;4988925;28;20703;-69
2022/01/15 00:35:57;;;;;;;0.10;0.10;;;;;;;;;;4984949;28;20627;-70
2022/01/15 00:38:24;;;;;;;0.10;0.10;;;;;;;;;;4988444;28;20624;-71
2022/01/15 00:40:52;;;;;;;0.10;0.10;;;;;;;;;;4986890;28;20688;-71
2022/01/15 00:43:20;;;;;;;0.10;0.10;;;;;;;;;;4989286;28;20736;-72
2022/01/15 00:45:48;;;;;;;0.10;0.10;;;;;;;;;;4986060;28;20621;-70
2022/01/15 00:48:15;;;;;;;0.10;0.10;;;;;;;;;;4982400;28;20624;-70
2022/01/15 00:50:43;;;;;;;0.10;0.10;;;;;;;;;;4988642;28;20616;-71
2022/01/15 00:53:10;;;;;;;0.10;0.10;;;;;;;;;;4982083;28;20671;-69
2022/01/15 00:55:37;;;;;;;0.10;0.10;;;;;;;;;;4987302;28;20636;-72
2022/01/15 00:58:04;;;;;;;0.10;0.10;;;;;;;;;;4982790;28;21172;-71
2022/01/15 01:00:33;;;;;;;0.10;0.10;;;;;;;;;;4985949;28;20649;-71
2022/01/15 01:03:00;;;;;;;0.10;0.10;;;;;;;;;;4990552;28;20673;-71
2022/01/15 01:05:28;;;;;;;0.10;0.10;;;;;;;;;;4982739;28;20657;-71
2022/01/15 01:07:56;;;;;;;0.10;0.10;;;;;;;;;;4996887;28;20635;-71
2022/01/15 01:24:18;;;;;;;0.10;0.10;;;;;;;;;;4987032;28;20713;-72
2022/01/15 01:26:52;;;;;;;0.10;0.10;;;;;;;;;;4980378;28;20633;-71
2022/01/15 01:29:29;;;;;;;0.10;0.10;;;;;;;;;;4987386;28;20633;-71
2022/01/15 01:32:02;;;;;;;0.10;0.10;;;;;;;;;;4988497;28;20637;-71
2022/01/15 01:34:33;;;;;;;0.10;0.10;;;;;;;;;;4985550;28;20747;-70
2022/01/15 01:37:07;;;;;;;0.10;0.10;;;;;;;;;;4985977;28;20631;-70
2022/01/15 01:39:42;;;;;;;0.10;0.10;;;;;;;;;;4984363;28;20632;-69
2022/01/15 01:42:26;;;;;;;0.10;0.10;;;;;;;;;;4990022;28;21237;-69
2022/01/15 01:45:01;;;;;;;0.10;0.10;;;;;;;;;;4988838;28;20694;-71
2022/01/15 01:47:39;;;;;;;0.10;0.10;;;;;;;;;;4982665;28;20644;-71
2022/01/15 01:50:08;;;;;;;0.10;0.10;;;;;;;;;;4987999;28;20622;-70
2022/01/15 01:52:35;;;;;;;0.10;0.10;;;;;;;;;;4988544;28;20731;-71
2022/01/15 01:55:02;;;;;;;0.10;0.10;;;;;;;;;;4989880;28;20662;-72
2022/01/15 01:57:29;;;;;;;0.10;0.10;;;;;;;;;;4983726;28;20707;-71
2022/01/15 01:59:57;;;;;;;0.10;0.10;;;;;;;;;;4995390;28;20620;-70
2022/01/15 02:02:24;;;;;;;0.10;0.10;;;;;;;;;;4988169;28;20718;-69
2022/01/15 02:04:57;;;;;;;0.10;0.10;;;;;;;;;;4999053;28;20660;-70
2022/01/15 02:07:25;;;;;;;0.10;0.10;;;;;;;;;;4984331;28;20640;-70
2022/01/15 02:09:53;;;;;;;0.10;0.10;;;;;;;;;;4991413;28;20612;-70
2022/01/15 02:12:20;;;;;;;0.10;0.10;;;;;;;;;;4986113;28;20635;-69
2022/01/15 02:14:48;;;;;;;0.10;0.10;;;;;;;;;;4983114;28;20695;-70
2022/01/15 02:17:17;;;;;;;0.10;0.10;;;;;;;;;;4990615;28;20643;-69
2022/01/15 02:19:58;;;;;;;0.10;0.10;;;;;;;;;;4986626;28;20629;-70
2022/01/15 02:25:12;;;;;;;0.20;0.20;;;;;;;;;;4977476;28;20863;-70
2022/01/15 02:27:39;;;;;;;0.10;0.10;;;;;;;;;;4989488;28;20616;-69
2022/01/15 02:30:07;;;;;;;0.10;0.10;;;;;;;;;;4987177;28;20677;-70
2022/01/15 02:32:35;;;;;;;0.10;0.10;;;;;;;;;;4984622;28;20628;-69
2022/01/15 02:35:04;;;;;;;0.20;0.20;;;;;;;;;;4985902;28;20659;-69
2022/01/15 02:37:32;;;;;;;0.10;0.10;;;;;;;;;;4987662;28;20656;-69
2022/01/15 02:39:59;;;;;;;0.10;0.10;;;7.00;99.90;;;;;;4985759;28;20638;-69
2022/01/15 02:42:30;;;;;;;0.17;0.17;;;;;;;;;;4988082;28;21065;-70
2022/01/15 02:45:01;;;;;;;0.10;0.10;;;;;;;;;;5010870;28;20667;-70
2022/01/15 02:50:15;;;;;;;0.10;0.10;;;;;;;;;;4982714;28;20619;-71
2022/01/15 02:52:42;;;;;;;0.10;0.10;;;;;;;;;;4982013;28;20625;-71
2022/01/15 02:55:10;;;;;;;0.10;0.10;;;;;;;;;;4989265;28;20642;-70
2022/01/15 02:57:37;;;;;;;0.20;0.20;;;;;;;;;;4990813;28;20624;-71
2022/01/15 03:00:04;;;;;;;0.10;0.10;;;;;;;;;;4989344;28;20643;-71
2022/01/15 03:02:33;;;;;;;0.10;0.10;;;;;;;;;;4987406;28;20672;-71
2022/01/15 03:05:00;;;;;;;0.10;0.10;;;;;;;;;;4989604;28;20663;-71
2022/01/15 03:07:29;;;;;;;0.20;0.20;;;;;;;;;;4988647;28;20608;-71
2022/01/15 03:09:56;;;;;;;0.10;0.10;;;;;;;;;;4990731;28;20624;-71
2022/01/15 03:12:23;;;;;;;0.10;0.10;;;2.20;99.90;;;;;;4986262;28;20725;-71
2022/01/15 03:14:55;;;;;;;0.30;0.20;;;1.90;99.90;;;;;;4985518;28;20645;-71
2022/01/15 03:17:21;;;;;;;0.20;0.20;;;1.90;99.90;;;;;;4981089;28;20719;-72
2022/01/15 03:19:48;;;;;;;0.10;0.10;;;1.90;99.90;;;;;;4991064;28;20609;-72
2022/01/15 03:22:15;;;;;;;0.10;0.10;;;1.90;99.90;;;;;;4983727;28;20652;-71
2022/01/15 03:24:44;;;;;;;0.13;0.13;;;1.90;99.90;;;;;;4986980;28;20668;-72
2022/01/15 03:27:11;;;;;;;0.10;0.10;;;1.90;99.90;;;;;;4987447;28;21229;-71
2022/01/15 03:29:37;;;;;;;0.20;0.20;;;1.90;99.90;;;;;;4987007;28;20633;-71
2022/01/15 03:32:05;;;;;;;0.20;0.20;;;1.90;99.90;;;;;;4986155;28;20595;-71
2022/01/15 03:34:32;;;;;;;0.20;0.20;;;1.80;99.90;;;;;;4985019;28;20763;-71
2022/01/15 03:37:00;;;;;;;0.20;0.20;;;1.80;99.90;;;;;;4987939;28;20630;-71
2022/01/15 03:39:28;;;;;;;0.10;0.10;;;1.80;99.90;;;;;;4986948;28;20623;-71
2022/01/15 03:41:56;;;;;;;0.20;0.20;;;1.80;99.90;;;;;;4985504;28;20687;-71
2022/01/15 03:44:23;;;;;;;0.10;0.10;;;1.70;99.90;;;;;;4988041;28;20710;-71
2022/01/15 03:46:50;;;;;;;0.20;0.20;;;1.70;99.90;;;;;;4986735;28;20621;-71
2022/01/15 03:49:17;;;;;;;0.20;0.20;;;1.70;99.90;;;;;;4989042;28;20612;-71
2022/01/15 03:51:44;;;;;;;0.20;0.20;;;1.70;99.90;;;;;;4982402;28;20644;-71
2022/01/15 03:54:11;;;;;;;0.10;0.10;;;1.70;99.90;;;;;;4987135;28;20681;-71
2022/01/15 03:56:38;;;;;;;0.20;0.20;;;1.70;99.90;;;;;;4983249;28;20652;-71
2022/01/15 03:59:06;;;;;;;0.10;0.10;;;1.70;99.90;;;;;;4984658;28;20629;-71
2022/01/15 04:01:33;;;;;;;0.10;0.10;;;1.70;99.90;;;;;;4978374;28;20657;-71
2022/01/15 04:04:00;;;;;;;0.20;0.20;;;1.70;99.90;;;;;;4982779;28;20659;-71
2022/01/15 04:06:27;;;;;;;0.20;0.20;;;1.60;99.90;;;;;;4982573;28;20644;-71
2022/01/15 04:08:54;;;;;;;0.20;0.20;;;1.60;99.90;;;;;;4986827;28;20735;-71
2022/01/15 04:11:21;;;;;;;0.13;0.13;;;1.50;99.90;;;;;;4982031;28;20608;-71
2022/01/15 04:13:48;;;;;;;0.10;0.10;;;1.50;99.90;;;;;;4987043;28;21211;-69
2022/01/15 04:16:16;;;;;;;0.10;0.10;;;1.50;99.90;;;;;;4984080;28;20613;-71
2022/01/15 04:18:43;;;;;;;0.10;0.10;;;1.50;99.90;;;;;;4983536;28;20641;-71
2022/01/15 04:21:10;;;;;;;0.00;0.00;;;1.50;99.90;;;;;;4980167;28;20631;-71
2022/01/15 04:23:37;;;;;;;0.10;0.10;;;1.40;99.90;;;;;;4985393;28;20656;-71
2022/01/15 04:26:05;;;;;;;0.10;0.10;;;1.40;99.90;;;;;;4983796;28;20611;-71
2022/01/15 04:28:34;;;;;;;0.20;0.20;;;1.40;99.90;;;;;;4983498;28;20628;-71
2022/01/15 04:31:05;;;;;;;0.10;0.10;;;1.40;99.90;;;;;;4993161;28;20619;-71
2022/01/15 04:33:35;;;;;;;0.10;0.10;;;1.40;99.90;;;;;;4985873;28;20664;-71
2022/01/15 04:36:02;;;;;;;0.20;0.20;;;1.30;99.90;;;;;;4987002;28;20609;-72
2022/01/15 04:38:31;;;;;;;0.10;0.10;;;1.30;99.90;;;;;;4987187;28;20636;-71
2022/01/15 04:40:58;;;;;;;0.10;0.10;;;1.30;99.90;;;;;;4981928;28;20671;-70
2022/01/15 04:43:25;;;;;;;0.10;0.10;;;1.30;99.90;;;;;;4988454;28;20668;-70
2022/01/15 04:45:52;;;;;;;0.20;0.20;;;1.30;99.90;;;;;;4982176;28;20624;-71
2022/01/15 04:48:19;;;;;;;0.10;0.10;;;1.30;99.90;;;;;;4989260;28;20644;-71
2022/01/15 04:50:47;;;;;;;0.10;0.10;;;1.20;99.90;;;;;;4982787;28;20621;-71
2022/01/15 04:53:14;;;;;;;0.20;0.20;;;1.20;99.90;;;;;;4986236;28;20680;-71
2022/01/15 04:55:41;;;;;;;0.10;0.10;;;1.20;99.90;;;;;;4986121;28;20694;-71
2022/01/15 04:58:09;;;;;;;0.10;0.10;;;1.20;99.90;;;;;;4987116;28;20681;-71
2022/01/15 05:00:37;;;;;;;0.10;0.10;;;1.20;99.90;;;;;;4983133;28;20631;-69
2022/01/15 05:03:04;;;;;;;0.20;0.20;;;1.20;99.90;;;;;;4985869;28;20676;-70
2022/01/15 05:05:32;;;;;;;0.10;0.10;;;1.10;99.90;;;;;;4980405;28;20631;-70
2022/01/15 05:08:02;;;;;;;0.17;0.17;;;1.10;99.90;;;;;;4986583;28;21212;-69
2022/01/15 05:10:29;;;;;;;0.20;0.20;;;1.10;99.90;;;;;;4984872;28;20616;-70
2022/01/15 05:12:59;;;;;;;0.20;0.20;;;1.10;99.90;;;;;;4985528;28;20629;-69
2022/01/15 05:15:26;;;;;;;0.10;0.10;;;1.10;99.90;;;;;;4983690;28;20621;-70
2022/01/15 05:17:53;;;;;;;0.10;0.10;;;1.10;99.90;;;;;;4986303;28;20636;-69
2022/01/15 05:20:22;;;;;;;0.10;0.10;;;1.00;99.90;;;;;;4996296;28;20724;-71
2022/01/15 05:22:49;;;;;;;0.10;0.10;;;1.00;99.90;;;;;;4984937;28;20661;-69
2022/01/15 05:25:18;;;;;;;0.10;0.10;;;1.00;99.90;;;;;;4984932;28;20612;-69
2022/01/15 05:27:46;;;;;;;0.20;0.20;;;1.00;99.90;;;;;;4986384;28;20633;-70
2022/01/15 05:30:14;;;;;;;0.20;0.20;;;1.00;99.90;;;;;;4977974;28;20624;-70
2022/01/15 05:32:41;;;;;;;0.20;0.20;;;1.00;99.90;;;;;;4986554;28;20605;-69
2022/01/15 05:35:09;;;;;;;0.20;0.20;;;0.90;99.90;;;;;;4982676;28;20652;-70
2022/01/15 05:37:36;;;;;;;0.20;0.20;;;0.90;99.90;;;;;;4979720;28;20652;-71
2022/01/15 05:40:05;;;;;;;0.27;0.27;;;0.90;99.90;;;;;;4987612;28;21002;-71
2022/01/15 05:42:33;;;;;;;0.20;0.20;;;0.80;99.90;;;;;;4992688;28;20678;-71
2022/01/15 05:45:00;;;;;;;0.20;0.20;;;0.90;99.90;;;;;;4987579;28;20670;-71
2022/01/15 05:47:27;;;;;;;0.20;0.20;;;0.80;99.90;;;;;;4994125;28;20633;-71
2022/01/15 05:49:54;;;;;;;0.20;0.20;;;0.80;99.90;;;;;;4985491;28;20684;-71
2022/01/15 05:52:21;;;;;;;0.10;0.10;;;0.90;99.90;;;;;;4979798;28;20616;-71
2022/01/15 05:54:48;;;;;;;0.20;0.20;;;0.90;99.90;;;;;;4985084;28;20710;-71
2022/01/15 05:57:15;;;;;;;0.20;0.20;;;1.00;99.90;;;;;;4988557;28;20628;-71
2022/01/15 05:59:44;;;;;;;0.17;0.17;;;1.00;99.90;;;;;;4979563;28;20621;-71
2022/01/15 06:02:12;;;;;;;0.10;0.10;;;1.10;99.90;;;;;;4990221;28;20729;-71
2022/01/15 06:04:39;;;;;;;0.10;0.10;;;1.10;99.90;;;;;;4981415;28;20661;-71
2022/01/15 06:07:06;;;;;;;0.10;0.10;;;1.10;99.90;;;;;;4992154;28;20662;-71
2022/01/15 06:09:33;;;;;;;0.10;0.10;;;1.10;99.90;;;;;;4983766;28;20637;-71
2022/01/15 06:12:01;;;;;;;0.10;0.10;;;1.10;99.90;;;;;;4987576;28;20647;-71
2022/01/15 06:14:29;;;;;;;0.10;0.10;;;1.10;99.90;;;;;;4986777;28;20643;-71
2022/01/15 06:16:58;;;;;;;0.10;0.10;;;1.10;99.90;;;;;;4988969;28;20643;-71
2022/01/15 06:19:25;;;;;;;0.10;0.10;;;1.10;99.90;;;;;;4987400;28;20624;-71
2022/01/15 06:21:52;;;;;;;0.10;0.10;;;1.10;99.90;;;;;;4986666;28;20606;-71
2022/01/15 06:24:20;;;;;;;0.20;0.20;;;1.10;99.90;;;;;;4997762;28;20665;-70
2022/01/15 06:26:47;;;;;;;0.13;0.13;;;1.20;99.90;;;;;;4989591;28;20634;-71
2022/01/15 06:29:14;;;;;;;0.10;0.10;;;1.20;99.90;;;;;;4986928;28;20636;-71
2022/01/15 06:31:41;;;;;;;0.20;0.20;;;1.20;99.90;;;;;;4990815;28;20631;-69
2022/01/15 06:34:09;;;;;;;0.10;0.10;;;1.20;99.90;;;;;;4988153;28;20693;-69
2022/01/15 06:36:36;;;;;;;0.17;0.17;;;1.20;99.90;;;;;;4986628;28;20763;-71
2022/01/15 06:39:03;;;;;;;0.20;0.20;;;1.20;99.90;;;;;;4988701;28;20618;-71
2022/01/15 06:41:30;;;;;;;0.20;0.20;;;1.20;99.90;;;;;;4987860;28;20643;-71
2022/01/15 06:43:57;;;;;;;0.10;0.10;;;1.30;99.90;;;;;;4987822;28;20672;-71
2022/01/15 06:46:24;;;;;;;0.10;0.10;;;1.30;99.90;;;;;;4981139;28;20610;-71
2022/01/15 06:48:51;;;;;;;0.10;0.10;;;1.30;99.90;;;;;;4987247;28;20613;-71
2022/01/15 06:51:19;;;;;;;0.10;0.10;;;1.40;99.90;;;;;;4987493;28;20613;-71
2022/01/15 06:53:46;;;;;;;0.10;0.10;;;1.40;99.90;;;;;;4990771;28;20636;-71
2022/01/15 06:56:14;;;;;;;0.10;0.10;;;1.40;99.90;;;;;;4987487;28;20632;-71
2022/01/15 06:58:41;;;;;;;0.10;0.10;;;1.50;99.90;;;;;;4985405;28;20632;-71
2022/01/15 07:01:08;;;;;;;0.10;0.10;;;1.50;99.90;;;;;;4981936;28;20621;-70
2022/01/15 07:03:35;;;;;;;0.10;0.10;;;1.60;99.90;;;;;;4988254;28;20672;-71
2022/01/15 07:06:02;;;;;;;0.10;0.10;;;1.60;99.90;;;;;;4989148;28;20674;-72
2022/01/15 07:08:33;;;;;;;0.10;0.10;;;;;;;;;;4989864;28;20600;-71
2022/01/15 07:11:00;;;;;;;0.10;0.10;;;1.60;99.90;;;;;;4985590;28;20679;-71
2022/01/15 07:13:29;;;;;;;0.17;0.17;;;1.70;99.90;;;;;;4988046;28;20710;-71
2022/01/15 07:15:56;;;;;;;0.10;0.10;;;1.70;99.90;;;;;;4989228;28;20665;-71
2022/01/15 07:18:23;;;;;;;0.20;0.20;;;1.80;99.90;;;;;;4988499;28;20754;-71
2022/01/15 07:20:52;;;;;;;0.10;0.10;;;1.80;99.90;;;;;;4987461;28;20624;-71
2022/01/15 07:23:19;;;;;;;0.10;0.10;;;1.80;99.90;;;;;;4988223;28;20679;-72
2022/01/15 07:25:47;;;;;;;0.10;0.10;;;1.80;99.90;;;;;;4990101;28;20620;-71
2022/01/15 07:28:14;;;;;;;0.10;0.10;;;1.80;99.90;;;;;;4979483;28;20731;-71
2022/01/15 07:30:41;;;;;;;0.13;0.13;;;1.90;99.90;;;;;;4985127;28;20608;-71
2022/01/15 07:33:08;;;;;;;0.10;0.10;;;1.90;99.90;;;;;;4984108;28;20660;-71
2022/01/15 07:35:35;;;;;;;0.10;0.10;;;1.90;99.90;;;;;;4987237;28;20612;-70
2022/01/15 07:38:02;;;;;;;0.20;0.20;;;1.90;99.90;;;;;;4992041;28;20675;-70
2022/01/15 07:40:29;;;;;;;0.10;0.10;;;1.90;99.90;;;;;;4988020;28;20764;-70
2022/01/15 07:42:58;;;;;;;0.10;0.10;;;1.90;99.90;;;;;;4986768;28;20668;-69
2022/01/15 07:45:25;;;;;;;0.20;0.20;;;1.90;99.90;;;;;;4988305;28;20632;-71
2022/01/15 07:47:52;;;;;;;0.10;0.10;;;2.00;99.90;;;;;;4985558;28;20612;-69
2022/01/15 07:50:23;;;;;;;0.20;0.20;;;2.00;99.90;;;;;;4982061;28;20670;-72
2022/01/15 07:52:52;;;;;;;0.10;0.10;;;2.00;99.90;;;;;;4986753;28;20617;-80
2022/01/15 07:55:20;;;;;;;0.10;0.10;;;2.00;99.90;;;;;;4988943;28;20674;-68
2022/01/15 07:57:51;;;;;;;0.10;0.10;;;2.10;99.90;;;;;;4981131;28;21368;-74
2022/01/15 08:00:20;;;;;;;0.10;0.10;;;2.10;99.90;;;;;;4987907;28;20632;-75
2022/01/15 08:02:46;;;;;;;0.10;0.10;;;2.10;99.90;;;;;;4986354;28;20676;-72
2022/01/15 08:05:14;;;;;;;0.10;0.10;;;2.20;99.90;;;;;;4983358;28;20617;-71
2022/01/15 08:07:42;;;;;;;0.13;0.13;;;2.30;99.90;;;;;;4981055;28;20633;-73
2022/01/15 08:10:10;;;;;;;0.10;0.10;;;2.20;99.90;;;;;;4987444;28;20639;-74
2022/01/15 08:12:43;;;;;;;0.10;0.10;;;2.20;99.90;;;;;;4982998;28;20688;-73
2022/01/15 08:15:11;;;;;;;0.13;0.13;;;2.30;99.90;;;;;;4987000;28;20627;-71
2022/01/15 08:17:39;;;;;;;0.10;0.10;;;2.30;99.90;;;;;;4988983;28;20635;-74
2022/01/15 08:20:07;;;;;;;0.10;0.10;;;2.20;99.90;;;;;;4982107;28;20630;-74
2022/01/15 08:22:34;;;;;;;0.20;0.20;;;2.20;99.90;;;;;;4988298;28;20686;-72
2022/01/15 08:25:01;;;;;;;0.10;0.10;;;2.20;99.90;;;;;;4984504;28;20651;-74
2022/01/15 08:27:28;;;;;;;0.10;0.10;;;2.30;99.90;;;;;;4984948;28;20719;-73
2022/01/15 08:29:55;;;;;;;0.10;0.10;;;2.30;99.90;;;;;;4985724;28;20632;-73
2022/01/15 08:32:22;;;;;;;0.10;0.10;;;2.30;99.90;;;;;;4986611;28;20624;-72
2022/01/15 08:34:51;;;;;;;0.10;0.10;;;2.30;99.90;;;;;;4985604;28;20642;-73
2022/01/15 08:37:18;;;;;;;0.10;0.10;;;2.30;99.90;;;;;;4987237;28;20708;-73
2022/01/15 08:39:45;;;;;;;0.10;0.10;;;2.30;99.90;;;;;;4978574;28;20604;-72
2022/01/15 08:42:12;;;;;;;0.10;0.10;;;2.30;99.90;;;;;;4986048;28;20617;-72
2022/01/15 08:44:42;;;;;;;0.10;0.10;;;2.40;99.90;;;;;;4983900;28;20671;-72
2022/01/15 08:47:10;;;;;;;0.10;0.10;;;2.40;99.90;;;;;;4983510;28;20635;-72
2022/01/15 08:49:37;;;;;;;0.10;0.10;;;2.40;99.90;;;;;;4985300;28;20716;-72
2022/01/15 08:52:06;;;;;;;0.10;0.10;;;2.40;99.90;;;;;;4979199;28;20624;-72
2022/01/15 08:54:33;;;;;;;0.10;0.10;;;2.40;99.90;;;;;;4979870;28;20661;-71
2022/01/15 08:57:01;;;;;;;0.10;0.10;;;2.40;99.90;;;;;;4978574;28;20733;-71
2022/01/15 08:59:28;;;;;;;0.10;0.10;;;2.50;99.90;;;;;;4988968;28;20601;-72
2022/01/15 09:01:56;;;;;;;0.10;0.10;;;2.50;99.90;;;;;;4995063;28;20643;-73
2022/01/15 09:04:23;;;;;;;0.10;0.10;;;2.50;99.90;;;;;;4985445;28;20757;-72
2022/01/15 09:06:51;;;;;;;0.10;0.10;;;2.50;99.90;;;;;;4989544;28;20632;-72
2022/01/15 09:09:19;;;;;;;0.10;0.10;;;2.60;99.90;;;;;;4986131;28;20680;-71
2022/01/15 09:11:46;;;;;;;0.10;0.10;;;2.70;99.90;;;;;;4983561;28;20644;-72
2022/01/15 09:14:13;;;;;;;0.10;0.10;;;2.70;99.90;;;;;;4983886;28;20679;-72
2022/01/15 09:16:41;;;;;;;0.10;0.10;;;2.70;99.90;;;;;;4985690;28;20739;-73
2022/01/15 09:19:08;;;;;;;0.10;0.10;;;2.80;99.90;;;;;;4988124;28;20694;-73
2022/01/15 09:21:35;;;;;;;0.10;0.10;;;2.80;99.90;;;;;;4974204;28;20633;-72
2022/01/15 09:24:02;;;;;;;0.20;0.20;;;2.90;99.90;;;;;;4986317;28;20734;-72
2022/01/15 09:26:49;;;;;;;0.10;0.10;;;3.00;99.90;;;;;;4985615;28;20740;-72
2022/01/15 09:32:03;;;;;;;0.17;0.17;;;3.00;99.90;;;;;;4997121;28;20613;-71
2022/01/15 09:34:32;;;;;;;0.10;0.10;;;3.10;99.90;;;;;;4988691;28;20660;-71
2022/01/15 09:36:59;;;;;;;0.10;0.10;;;3.20;99.90;;;;;;4990941;28;20631;-72
2022/01/15 09:39:26;;;;;;;0.10;0.10;;;3.20;99.90;;;;;;4988385;28;20687;-72
2022/01/15 09:41:55;;;;;;;0.10;0.10;;;3.30;99.90;;;;;;4988223;28;20633;-72
2022/01/15 09:44:25;;;;;;;0.10;0.10;;;3.40;99.90;;;;;;4986423;28;20660;-70
2022/01/15 09:46:52;;;;;;;0.10;0.10;;;3.40;99.90;;;;;;4990049;28;20632;-71
2022/01/15 09:49:22;;;;;;;0.10;0.10;;;3.50;99.90;;;;;;4987714;28;20652;-71
2022/01/15 09:51:49;;;;;;;0.10;0.10;;;3.50;99.90;;;;;;4988167;28;20675;-70
2022/01/15 09:54:21;;;;;;;0.10;0.10;;;3.60;99.90;;;;;;4990951;28;20662;-70
2022/01/15 09:56:49;;;;;;;0.10;0.10;;;3.60;99.90;;;;;;4993138;28;20639;-70
2022/01/15 09:59:18;;;;;;;0.20;0.20;;;3.70;99.90;;;;;;4989380;28;20632;-70
2022/01/15 10:01:47;;;;;;;0.10;0.10;;;3.80;99.90;;;;;;4995115;28;20611;-69
2022/01/15 10:04:14;;;;;;;0.10;0.10;;;3.80;99.90;;;;;;4979230;28;20678;-75
2022/01/15 10:07:06;;;;;;;0.10;0.10;;;3.90;99.90;;;;;;4978987;28;20724;-73
2022/01/15 10:09:33;;;;;;;0.10;0.10;;;4.00;99.90;;;;;;4985814;28;20644;-71
2022/01/15 10:12:00;;;;;;;0.10;0.10;;;4.10;99.90;;;;;;4989634;28;20620;-71
2022/01/15 10:14:30;;;;;;;0.10;0.10;;;4.10;99.90;;;;;;4994139;23;20706;-71
2022/01/15 10:16:59;;;;;;;0.10;0.10;;;4.20;99.90;;;;;;4988570;28;20612;-72
2022/01/15 10:19:32;;;;;;;0.10;0.10;;;4.30;99.90;;;;;;4993566;28;20684;-74
2022/01/15 10:22:09;;;;;;;0.20;0.20;;;4.40;99.90;;;;;;4987764;28;20644;-74
2022/01/15 10:24:37;;;;;;;0.10;0.10;;;4.50;99.90;;;;;;4981223;28;20664;-73
2022/01/15 10:27:28;;;;;;;0.10;0.10;;;4.60;99.90;;;;;;4983677;28;20616;-71
2022/01/15 10:30:00;;;;;;;0.10;0.10;;;4.80;99.90;;;;;;4974830;28;20684;-70
2022/01/15 10:32:29;;;;;;;0.10;0.10;;;4.80;99.90;;;;;;4976029;28;20625;-73
2022/01/15 10:34:56;;;;;;;0.10;0.10;;;4.90;99.90;;;;;;4979127;28;20838;-70
2022/01/15 10:37:26;;;;;;;0.10;0.10;;;5.00;99.90;;;;;;4982574;28;20636;-69
2022/01/15 10:39:59;;;;;;;0.10;0.10;;;5.10;99.90;;;;;;4978782;28;20701;-70
2022/01/15 10:42:27;;;;;;;0.10;0.10;;;5.10;99.90;;;;;;4972329;28;20711;-71
2022/01/15 10:44:55;;;;;;;0.10;0.10;;;5.20;99.90;;;;;;4966089;28;20760;-74
2022/01/15 10:47:26;;;;;;;0.10;0.10;;;5.30;99.90;;;;;;4970690;28;20609;-70
2022/01/15 10:49:58;;;;;;;0.10;0.10;;;5.30;99.90;;;;;;4985700;28;20621;-71
2022/01/15 10:52:27;;;;;;;0.10;0.10;;;5.40;99.90;;;;;;4970435;28;20617;-67
2022/01/15 10:55:01;;;;;;;0.17;0.17;;;5.40;99.90;;;;;;4968097;28;20652;-71
2022/01/15 10:57:32;;;;;;;0.10;0.10;;;5.40;99.90;;;;;;4973967;28;20612;-70
2022/01/15 11:00:08;;;;;;;0.10;0.10;;;5.50;99.90;;;;;;4967920;28;20636;-70
2022/01/15 11:02:37;;;;;;;0.10;0.10;;;5.50;99.90;;;;;;4966945;28;20720;-70
2022/01/15 11:05:27;;;;;;;0.10;0.10;;;5.50;99.90;;;;;;4974890;28;20677;-68
2022/01/15 11:08:02;;;;;;;0.10;0.10;;;5.50;99.90;;;;;;4974079;28;20634;-67
2022/01/15 11:10:29;;;;;;;0.10;0.10;;;5.50;99.90;;;;;;4977309;28;20629;-68
2022/01/15 11:12:57;;;;;;;0.10;0.10;;;5.50;99.90;;;;;;4972861;28;20660;-67
2022/01/15 11:15:24;;;;;;;0.10;0.10;;;5.50;99.90;;;;;;4979907;28;20632;-69
2022/01/15 11:17:53;;;;;;;0.10;0.10;;;5.40;99.90;;;;;;4977328;28;21026;-70
2022/01/15 11:20:24;;;;;;;0.10;0.10;;;5.40;99.90;;;;;;4971565;28;20629;-70
2022/01/15 11:22:52;;;;;;;0.10;0.10;;;5.50;99.90;;;;;;4970774;28;20589;-71
2022/01/15 11:25:18;;;;;;;0.10;0.10;;;5.50;99.90;;;;;;4969023;28;20652;-70
2022/01/15 11:27:45;;;;;;;0.10;0.10;;;5.50;99.90;;;;;;4962106;28;20633;-70
2022/01/15 11:30:13;;;;;;;0.10;0.10;;;5.50;99.90;;;;;;4966509;28;20656;-73
2022/01/15 11:32:42;;;;;;;0.10;0.10;;;5.60;99.90;;;;;;4968182;28;21160;-70
2022/01/15 11:35:11;;;;;;;0.10;0.10;;;5.60;99.90;;;;;;4975031;28;20667;-75
2022/01/15 11:37:46;;;;;;;0.10;0.10;;;5.60;99.90;;;;;;4970594;28;20633;-73
2022/01/15 11:40:39;;;;;;;0.10;0.10;;;5.70;99.90;;;;;;4973303;28;20628;-72
2022/01/15 11:43:41;;;;;;;0.10;0.10;;;5.70;99.90;;;;;;4992522;28;20671;-73
2022/01/15 11:46:28;;;;;;;0.10;0.10;;;5.70;99.90;;;;;;4972361;28;20651;-73
2022/01/15 11:49:25;;;;;;;0.10;0.10;;;5.70;99.90;;;;;;4973233;28;20637;-78
2022/01/15 11:51:56;;;;;;;0.10;0.10;;;5.70;99.90;;;;;;4991207;28;20637;-70
2022/01/15 11:54:25;;;;;;;0.10;0.10;;;5.70;99.90;;;;;;4970065;28;20649;-73
2022/01/15 11:56:52;;;;;;;0.10;0.10;;;5.70;99.90;;;;;;4967403;28;21253;-73
2022/01/15 11:59:48;;;;;;;0.10;0.10;;;5.70;99.90;;;;;;4965333;28;20622;-73
2022/01/15 12:02:29;;;;;;;0.10;0.10;;;5.70;99.90;;;;;;4987428;28;20629;-73
2022/01/15 12:05:30;;;;;;;0.10;0.10;;;5.70;99.90;;;;;;4973539;28;20668;-73
2022/01/15 12:08:32;;;;;;;0.10;0.10;;;5.80;99.90;;;;;;4970262;28;20662;-67
2022/01/15 12:11:01;;;;;;;0.10;0.10;;;5.80;99.90;;;;;;4967216;28;20639;-69
2022/01/15 12:13:34;;;;;;;0.10;0.10;;;5.70;99.90;;;;;;4964284;28;20680;-68
2022/01/15 12:16:26;;;;;;;0.10;0.10;;;5.70;99.90;;;;;;4973814;28;20619;-68
2022/01/15 12:18:54;;;;;;;0.10;0.10;;;5.70;99.90;;;;;;4968096;28;20617;-73
2022/01/15 12:21:55;;;;;;;0.13;0.13;;;5.70;99.90;;;;;;4968900;28;20697;-72
2022/01/15 12:24:54;;;;;;;0.10;0.10;;;5.70;99.90;;;;;;4953067;28;20795;-71
2022/01/15 12:27:26;;;;;;;0.10;0.10;;;5.70;99.90;;;;;;4949724;28;20647;-73
2022/01/15 12:30:02;;;;;;;0.10;0.10;;;5.80;99.90;;;;;;4977943;28;20632;-71
2022/01/15 12:32:32;;;;;;;0.10;0.10;;;5.80;99.90;;;;;;4967243;28;20629;-71
2022/01/15 12:35:00;;;;;;;0.10;0.10;;;5.80;99.90;;;;;;4966474;28;20710;-72
2022/01/15 12:37:28;;;;;;;0.10;0.10;;;5.90;99.90;;;;;;4962595;28;20634;-71
2022/01/15 12:40:26;;;;;;;0.10;0.10;;;5.80;99.90;;;;;;4968660;28;20637;-73
2022/01/15 12:42:56;;;;;;;0.10;0.10;;;5.90;99.90;;;;;;4979926;28;20636;-72
2022/01/15 12:45:24;;;;;;;0.10;0.10;;;5.80;99.90;;;;;;4971023;28;20707;-71
2022/01/15 12:47:51;;;;;;;0.10;0.10;;;5.90;99.90;;;;;;4966422;28;20621;-73
2022/01/15 12:50:18;;;;;;;0.10;0.10;;;5.90;99.90;;;;;;4967484;28;20664;-71
2022/01/15 12:52:45;;;;;;;0.10;0.10;;;5.90;99.90;;;;;;4969775;28;20666;-71
2022/01/15 12:55:12;;;;;;;0.10;0.10;;;5.90;99.90;;;;;;4967690;28;20674;-71
2022/01/15 12:57:44;;;;;;;0.10;0.10;;;5.80;99.90;;;;;;4972987;28;20611;-71
2022/01/15 13:00:13;;;;;;;0.10;0.10;;;5.90;99.90;;;;;;4973017;28;20632;-73
2022/01/15 13:02:40;;;;;;;0.10;0.10;;;5.90;99.90;;;;;;4969594;28;20638;-71
2022/01/15 13:05:11;;;;;;;0.07;0.07;;;5.80;99.90;;;;;;4974792;28;20668;-73
2022/01/15 13:07:56;;;;;;;0.10;0.10;;;5.80;99.90;;;;;;4967589;28;20741;-74
2022/01/15 13:10:29;;;;;;;0.10;0.10;;;5.80;99.90;;;;;;4966868;28;20726;-72
2022/01/15 13:12:58;;;;;;;0.10;0.10;;;5.90;99.90;;;;;;4976103;28;20708;-71
2022/01/15 13:15:28;;;;;;;0.10;0.10;;;5.90;99.90;;;;;;4975273;28;21249;-72
2022/01/15 13:17:55;;;;;;;0.10;0.10;;;5.80;99.90;;;;;;4976351;28;20617;-71
2022/01/15 13:20:28;;;;;;;0.10;0.10;;;5.80;99.90;;;;;;4966535;28;20629;-71
2022/01/15 13:22:56;;;;;;;0.10;0.10;;;5.80;99.90;;;;;;4970349;28;20652;-71
2022/01/15 13:25:24;;;;;;;0.10;0.10;;;5.80;99.90;;;;;;4970994;28;20665;-71
2022/01/15 13:27:51;;;;;;;0.10;0.10;;;5.80;99.90;;;;;;4969624;28;20625;-72
2022/01/15 13:30:21;;;;;;;0.10;0.10;;;5.90;99.90;;;;;;4977830;28;20605;-71
2022/01/15 13:32:57;;;;;;;0.10;0.10;;;5.90;99.90;;;;;;4973904;28;20626;-73
2022/01/15 13:35:24;;;;;;;0.10;0.10;;;5.90;99.90;;;;;;4970316;28;21184;-71
2022/01/15 13:37:54;;;;;;;0.10;0.10;;;5.90;99.90;;;;;;4974168;28;20605;-72
2022/01/15 13:40:29;;;;;;;0.10;0.10;;;5.90;99.90;;;;;;4965167;28;20640;-73
2022/01/15 13:42:57;;;;;;;0.10;0.10;;;5.90;99.90;;;;;;4968396;28;20644;-71
2022/01/15 13:45:28;;;;;;;0.10;0.10;;;5.90;99.90;;;;;;4969258;28;20674;-71
2022/01/15 13:48:06;;;;;;;0.10;0.10;;;5.90;99.90;;;;;;4969067;28;20633;-73
2022/01/15 13:53:28;;;;;;;0.10;0.10;;;5.80;99.90;;;;;;4967241;28;20648;-72
2022/01/15 13:56:13;;;;;;;0.10;0.10;;;5.80;99.90;;;;;;4971637;28;20619;-72